Time;durP1;ratioP1;P1;durP2;ratioP2;P2;SDS_P1;SDS_P2;PMS_P1;PMS_P2;Temp;Humidity;BMP_temperature;BMP_pressure;BME280_temperature;BME280_humidity;BME280_pressure;Samples;Min_cycle;Max_cycle;Signal;HPM_P1;HPM_P2
2022/05/12 00:03:49;;;;;;;1.15;0.40;;;;;;;;;;5449221;23;20418;-96
2022/05/12 00:06:16;;;;;;;0.10;0.10;;;;;;;;;;4944457;28;20050;-95
2022/05/12 00:08:42;;;;;;;0.10;0.10;;;;;;;;;;4928149;28;20039;-96
2022/05/12 00:11:09;;;;;;;0.10;0.10;;;;;;;;;;4930791;28;20119;-96
2022/05/12 00:13:35;;;;;;;0.13;0.13;;;;;;;;;;4924867;29;20043;-96
2022/05/12 00:16:01;;;;;;;0.10;0.10;;;;;;;;;;4924923;29;20047;-96
2022/05/12 00:18:30;;;;;;;0.10;0.10;;;;;;;;;;4941045;29;20459;-96
2022/05/12 00:20:56;;;;;;;0.10;0.10;;;;;;;;;;4924821;29;20058;-96
2022/05/12 00:23:23;;;;;;;0.10;0.10;;;;;;;;;;4924386;29;20368;-96
2022/05/12 00:25:51;;;;;;;0.65;0.65;;;;;;;;;;4925762;29;20150;-96
2022/05/12 00:28:24;;;;;;;0.10;0.10;;;;;;;;;;4929928;29;20043;-96
2022/05/12 00:30:56;;;;;;;0.10;0.10;;;;;;;;;;4927846;29;20122;-96
2022/05/12 00:33:27;;;;;;;0.10;0.10;;;;;;;;;;4928088;29;20073;-96
2022/05/12 00:35:54;;;;;;;0.10;0.10;;;;;;;;;;4930969;29;20054;-96
2022/05/12 00:38:33;;;;;;;0.15;0.15;;;;;;;;;;4928457;29;20051;-96
2022/05/12 00:40:59;;;;;;;0.20;0.20;;;;;;;;;;4929447;29;20388;-96
2022/05/12 00:43:35;;;;;;;0.22;0.22;;;;;;;;;;4925574;29;20086;-96
2022/05/12 00:46:02;;;;;;;0.10;0.10;;;;;;;;;;4924265;29;20039;-96
2022/05/12 00:48:28;;;;;;;0.10;0.10;;;;;;;;;;4923815;29;20047;-95
2022/05/12 00:50:54;;;;;;;0.10;0.10;;;;;;;;;;4924547;29;20413;-96
2022/05/12 00:53:20;;;;;;;0.10;0.10;;;;;;;;;;4924343;29;20514;-96
2022/05/12 00:55:46;;;;;;;0.10;0.10;;;;;;;;;;4925248;29;20050;-96
2022/05/12 00:58:16;;;;;;;0.10;0.10;;;;;;;;;;4924411;28;20105;-96
2022/05/12 01:00:42;;;;;;;0.10;0.10;;;;;;;;;;4908739;29;20075;-96
2022/05/12 01:03:10;;;;;;;0.10;0.10;;;;;;;;;;4939269;28;20062;-96
2022/05/12 01:05:36;;;;;;;0.10;0.10;;;;;;;;;;4924129;29;20054;-96
2022/05/12 01:08:02;;;;;;;0.10;0.10;;;;;;;;;;4924280;29;20042;-96
2022/05/12 01:10:29;;;;;;;0.10;0.10;;;;;;;;;;4925143;29;20118;-96
2022/05/12 01:12:59;;;;;;;0.10;0.10;;;;;;;;;;4926112;29;20121;-96
2022/05/12 01:15:25;;;;;;;0.10;0.10;;;;;;;;;;4926034;29;20043;-96
2022/05/12 01:18:02;;;;;;;0.10;0.10;;;;;;;;;;4941643;29;20047;-96
2022/05/12 01:20:28;;;;;;;0.10;0.10;;;;;;;;;;4924273;29;20042;-96
2022/05/12 01:22:57;;;;;;;0.10;0.10;;;;;;;;;;4923774;29;20484;-96
2022/05/12 01:25:24;;;;;;;0.10;0.10;;;;;;;;;;4924375;29;20583;-96
2022/05/12 01:28:03;;;;;;;0.10;0.10;;;;;;;;;;4939089;29;20093;-96
2022/05/12 01:30:29;;;;;;;0.10;0.10;;;;;;;;;;4926418;29;20051;-96
2022/05/12 01:32:56;;;;;;;0.10;0.10;;;;;;;;;;4924941;29;20479;-96
2022/05/12 01:35:25;;;;;;;0.10;0.10;;;;;;;;;;4924306;29;20043;-96
2022/05/12 01:37:52;;;;;;;0.10;0.10;;;;;;;;;;4928856;29;20074;-96
2022/05/12 01:41:11;;;;;;;;;;;;;;;;;;;;;
2022/05/12 01:43:51;;;;;;;0.10;0.10;;;;;;;;;;4894386;29;20128;-96
2022/05/12 01:46:17;;;;;;;0.10;0.10;;;;;;;;;;4924427;29;20034;-96
2022/05/12 01:48:44;;;;;;;0.10;0.10;;;;;;;;;;4924134;29;20487;-96
2022/05/12 01:51:10;;;;;;;0.10;0.10;;;;;;;;;;4924325;29;20066;-96
2022/05/12 01:53:38;;;;;;;0.10;0.10;;;;;;;;;;4923880;29;20079;-96
2022/05/12 01:56:13;;;;;;;0.10;0.10;;;;;;;;;;4930366;29;20043;-96
2022/05/12 01:58:45;;;;;;;0.10;0.10;;;;;;;;;;4944211;29;20042;-96
2022/05/12 02:01:12;;;;;;;0.10;0.10;;;;;;;;;;4925285;29;20047;-96
2022/05/12 02:03:44;;;;;;;0.10;0.10;;;;;;;;;;4923953;29;20055;-96
2022/05/12 02:06:10;;;;;;;0.10;0.10;;;;;;;;;;4925739;29;20093;-96
2022/05/12 02:08:36;;;;;;;0.10;0.10;;;;;;;;;;4923127;29;20039;-95
2022/05/12 02:11:02;;;;;;;0.10;0.10;;;;;;;;;;4926686;28;20487;-96
2022/05/12 02:13:28;;;;;;;0.10;0.10;;;;;;;;;;4929433;29;20065;-96
2022/05/12 02:15:58;;;;;;;0.10;0.10;;;;;;;;;;4930226;29;20066;-96
2022/05/12 02:18:24;;;;;;;0.10;0.10;;;;;;;;;;4929552;29;20043;-96
2022/05/12 02:20:53;;;;;;;0.10;0.10;;;;;;;;;;4929841;29;20479;-96
2022/05/12 02:23:25;;;;;;;0.10;0.10;;;;;;;;;;4932654;29;20047;-96
2022/05/12 02:25:54;;;;;;;0.10;0.10;;;;;;;;;;4935642;29;20051;-96
2022/05/12 02:28:25;;;;;;;0.10;0.10;;;;;;;;;;4923844;29;20051;-96
2022/05/12 02:30:51;;;;;;;0.10;0.10;;;;;;;;;;4929920;29;20483;-96
2022/05/12 02:33:17;;;;;;;0.10;0.10;;;;;;;;;;4929362;29;20042;-96
2022/05/12 02:35:43;;;;;;;0.10;0.10;;;;;;;;;;4946083;29;20050;-96
2022/05/12 02:38:09;;;;;;;0.10;0.10;;;;;;;;;;4929828;29;20054;-95
2022/05/12 02:40:37;;;;;;;0.10;0.10;;;;;;;;;;4929698;29;20113;-96
2022/05/12 02:43:22;;;;;;;0.10;0.10;;;;;;;;;;4929410;29;20043;-96
2022/05/12 02:45:50;;;;;;;0.10;0.10;;;;;;;;;;4933001;28;20053;-96
2022/05/12 02:48:18;;;;;;;0.10;0.10;;;;;;;;;;4929697;29;20455;-96
2022/05/12 02:50:44;;;;;;;0.10;0.10;;;;;;;;;;4943750;29;20473;-96
2022/05/12 02:53:10;;;;;;;0.10;0.10;;;;;;;;;;4929312;29;20522;-96
2022/05/12 02:55:36;;;;;;;0.10;0.10;;;;;;;;;;4929184;28;20039;-96
2022/05/12 02:58:17;;;;;;;0.10;0.10;;;;;;;;;;4938694;29;20047;-96
2022/05/12 03:01:08;;;;;;;0.10;0.10;;;;;;;;;;4960687;29;20046;-96
2022/05/12 03:03:59;;;;;;;;;;;;;;;;;;;;;
2022/05/12 03:06:35;;;;;;;0.10;0.10;;;;;;;;;;4900332;29;20487;-96
2022/05/12 03:09:01;;;;;;;0.10;0.10;;;;;;;;;;4928997;29;20039;-96
2022/05/12 03:11:28;;;;;;;0.10;0.10;;;;;;;;;;4928209;29;20081;-96
2022/05/12 03:13:54;;;;;;;0.10;0.10;;;;;;;;;;4929035;29;20039;-96
2022/05/12 03:16:25;;;;;;;0.10;0.10;;;;;;;;;;4929185;28;20045;-96
2022/05/12 03:18:54;;;;;;;0.10;0.10;;;;;;;;;;4930318;29;20046;-94
2022/05/12 03:21:30;;;;;;;;;;;;;;;;;;4934146;28;20047;-96
2022/05/12 04:13:27;;;;;;;0.10;0.10;;;;;;;;;;4050458;23;20303;-93
2022/05/12 04:16:11;;;;;;;0.10;0.10;;;;;;;;;;4943485;28;20058;-96
2022/05/12 04:18:40;;;;;;;0.10;0.10;;;;;;;;;;4950949;28;20039;-96
2022/05/12 04:21:09;;;;;;;0.10;0.10;;;;;;;;;;4960323;28;20046;-96
2022/05/12 04:24:11;;;;;;;;;;;;;;;;;;;;;
2022/05/12 04:30:42;;;;;;;;;;;;;;;;;;4837692;29;20058;-96
2022/05/12 04:36:14;;;;;;;0.10;0.10;;;;;;;;;;4831867;29;20074;-96
2022/05/12 04:39:17;;;;;;;0.10;0.10;;;;;;;;;;4833665;29;20050;-96
2022/05/12 04:48:10;;;;;;;0.10;0.10;;;;;;;;;;4996758;23;20094;-96
2022/05/12 04:50:36;;;;;;;0.10;0.10;;;;;;;;;;4945421;28;20395;-96
2022/05/12 04:53:02;;;;;;;0.10;0.10;;;;;;;;;;4926300;29;20046;-95
2022/05/12 04:55:35;;;;;;;0.10;0.10;;;;;;;;;;4932733;29;20043;-96
2022/05/12 04:58:14;;;;;;;0.10;0.10;;;;;;;;;;4933981;28;20050;-96
2022/05/12 05:00:41;;;;;;;0.10;0.10;;;;;;;;;;4930009;29;20487;-93
2022/05/12 05:03:07;;;;;;;0.10;0.10;;;;;;;;;;4922909;29;20066;-93
2022/05/12 05:05:33;;;;;;;2.72;0.20;;;;;;;;;;4923887;29;20089;-91
2022/05/12 05:07:59;;;;;;;0.10;0.10;;;;;;;;;;4923463;29;20054;-91
2022/05/12 05:10:26;;;;;;;0.10;0.10;;;;;;;;;;4923041;29;20051;-92
2022/05/12 05:12:53;;;;;;;0.10;0.10;;;;;;;;;;4923179;29;20039;-92
2022/05/12 05:15:19;;;;;;;0.10;0.10;;;;;;;;;;4923561;29;20047;-91
2022/05/12 05:17:45;;;;;;;0.10;0.10;;;;;;;;;;4923319;29;20043;-94
2022/05/12 05:20:16;;;;;;;0.10;0.10;;;;;;;;;;4922890;29;20039;-90
2022/05/12 05:22:43;;;;;;;0.10;0.10;;;;;;;;;;4922517;29;20383;-89
2022/05/12 05:25:09;;;;;;;0.10;0.10;;;;;;;;;;4922428;29;20428;-88
2022/05/12 05:27:35;;;;;;;0.10;0.10;;;;;;;;;;4922418;29;20043;-90
2022/05/12 05:30:02;;;;;;;0.10;0.10;;;;;;;;;;4922823;29;20051;-90
2022/05/12 05:32:28;;;;;;;0.10;0.10;;;;;;;;;;4938318;29;20050;-91
2022/05/12 05:34:54;;;;;;;0.10;0.10;;;;;;;;;;4922519;29;20039;-91
2022/05/12 05:37:20;;;;;;;0.10;0.10;;;;;;;;;;4922639;29;20411;-89
2022/05/12 05:39:46;;;;;;;0.10;0.10;;;;;;;;;;4922243;29;20050;-89
2022/05/12 05:42:13;;;;;;;0.10;0.10;;;;;;;;;;4922349;29;20491;-90
2022/05/12 05:44:40;;;;;;;0.10;0.10;;;;;;;;;;4921493;28;20078;-90
2022/05/12 05:47:07;;;;;;;0.40;0.40;;;;;;;;;;4922178;29;20043;-92
2022/05/12 05:49:33;;;;;;;0.10;0.10;;;;;;;;;;4922547;29;20094;-89
2022/05/12 05:54:44;;;;;;;0.10;0.10;;;;;;;;;;4924492;29;20047;-87
2022/05/12 05:57:10;;;;;;;0.10;0.10;;;;;;;;;;4922640;29;20050;-88
2022/05/12 05:59:36;;;;;;;0.10;0.10;;;;;;;;;;4922895;29;20490;-92
2022/05/12 06:02:03;;;;;;;0.10;0.10;;;;;;;;;;4922466;29;20454;-92
2022/05/12 06:04:29;;;;;;;0.10;0.10;;;;;;;;;;4920499;29;20039;-92
2022/05/12 06:06:56;;;;;;;0.10;0.10;;;;;;;;;;4922961;29;20039;-92
2022/05/12 06:09:23;;;;;;;0.10;0.10;;;;;;;;;;4922237;29;20411;-95
2022/05/12 06:11:49;;;;;;;0.10;0.10;;;;;;;;;;4937987;29;20084;-92
2022/05/12 06:14:16;;;;;;;0.13;0.13;;;;;;;;;;4922096;29;20043;-92
2022/05/12 06:16:43;;;;;;;0.10;0.10;;;;;;;;;;4938457;29;20360;-92
2022/05/12 06:19:09;;;;;;;0.10;0.10;;;;;;;;;;4923045;29;20194;-91
2022/05/12 06:21:36;;;;;;;0.10;0.10;;;;;;;;;;4922064;29;20078;-94
2022/05/12 06:24:02;;;;;;;0.10;0.10;;;;;;;;;;4922199;29;20042;-92
2022/05/12 06:26:28;;;;;;;0.10;0.10;;;;;;;;;;4922495;29;20106;-93
2022/05/12 06:28:55;;;;;;;0.10;0.10;;;;;;;;;;4937634;29;20055;-92
2022/05/12 06:31:30;;;;;;;0.10;0.10;;;;;;;;;;4922012;29;20062;-96
2022/05/12 06:33:56;;;;;;;0.15;0.15;;;;;;;;;;4922324;29;20171;-93
2022/05/12 06:36:22;;;;;;;0.17;0.17;;;;;;;;;;4922473;29;20054;-92
2022/05/12 06:38:48;;;;;;;0.10;0.10;;;;;;;;;;4922500;29;20102;-92
2022/05/12 06:41:14;;;;;;;0.10;0.10;;;;;;;;;;4924402;29;20050;-92
2022/05/12 06:43:45;;;;;;;0.10;0.10;;;;;;;;;;4922041;29;20407;-92
2022/05/12 06:46:11;;;;;;;0.20;0.20;;;;;;;;;;4922572;29;20077;-92
2022/05/12 06:48:37;;;;;;;0.10;0.10;;;;;;;;;;4922135;29;20058;-93
2022/05/12 06:51:03;;;;;;;0.30;0.30;;;;;;;;;;4922589;29;20055;-92
2022/05/12 06:53:29;;;;;;;0.10;0.10;;;;;;;;;;4922536;29;20042;-93
2022/05/12 06:55:55;;;;;;;0.10;0.10;;;;;;;;;;4923425;29;20043;-92
2022/05/12 06:58:21;;;;;;;1.10;0.20;;;;;;;;;;4925491;29;20390;-92
2022/05/12 07:00:47;;;;;;;0.10;0.10;;;;;;;;;;4926428;29;20057;-93
2022/05/12 07:03:14;;;;;;;0.10;0.10;;;;;;;;;;4925898;29;20083;-92
2022/05/12 07:05:40;;;;;;;0.10;0.10;;;;;;;;;;4926025;29;20500;-93
2022/05/12 07:08:07;;;;;;;0.10;0.10;;;;;;;;;;4941626;29;20051;-92
2022/05/12 07:10:33;;;;;;;0.10;0.10;;;;;;;;;;4925098;29;20047;-92
2022/05/12 07:12:59;;;;;;;0.30;0.30;;;;;;;;;;4925786;29;20043;-92
2022/05/12 07:15:27;;;;;;;0.10;0.10;;;;;;;;;;4925416;29;20046;-93
2022/05/12 07:17:55;;;;;;;0.20;0.20;;;;;;;;;;4924190;29;20043;-92
2022/05/12 07:28:34;;;;;;;0.20;0.20;;;;;;;;;;4940340;29;20050;-93
2022/05/12 07:31:00;;;;;;;0.10;0.10;;;;;;;;;;4925042;29;20039;-93
2022/05/12 07:33:26;;;;;;;0.10;0.10;;;;;;;;;;4925327;29;20484;-93
2022/05/12 07:35:52;;;;;;;0.10;0.10;;;;;;;;;;4926079;29;20070;-93
2022/05/12 07:38:18;;;;;;;0.10;0.10;;;;;;;;;;4925649;29;20510;-92
2022/05/12 07:40:44;;;;;;;0.10;0.10;;;;;;;;;;4925626;29;20138;-92
2022/05/12 07:43:10;;;;;;;0.10;0.10;;;;;;;;;;4925066;29;20042;-93
2022/05/12 07:45:36;;;;;;;0.10;0.10;;;;;;;;;;4925016;29;20059;-93
2022/05/12 07:48:05;;;;;;;0.10;0.10;;;;;;;;;;4925003;29;20043;-92
2022/05/12 07:50:31;;;;;;;0.10;0.10;;;;;;;;;;4940681;29;20145;-93
2022/05/12 07:52:57;;;;;;;0.10;0.10;;;;;;;;;;4924994;29;20075;-92
2022/05/12 07:55:23;;;;;;;0.15;0.15;;;;;;;;;;4924996;29;20043;-93
2022/05/12 07:57:50;;;;;;;0.10;0.10;;;;;;;;;;4924687;29;20039;-93
2022/05/12 08:00:16;;;;;;;0.13;0.13;;;;;;;;;;4925284;29;20050;-93
2022/05/12 08:02:42;;;;;;;0.20;0.20;;;;;;;;;;4924805;29;20043;-92
2022/05/12 08:05:09;;;;;;;0.10;0.10;;;;;;;;;;4924804;29;20114;-92
2022/05/12 08:07:35;;;;;;;0.13;0.13;;;;;;;;;;4924841;29;20082;-94
2022/05/12 08:10:01;;;;;;;0.20;0.20;;;;;;;;;;4924477;29;20102;-93
2022/05/12 08:12:28;;;;;;;0.30;0.30;;;;;;;;;;4924389;29;20496;-93
2022/05/12 08:14:54;;;;;;;0.10;0.10;;;;;;;;;;4924161;29;20039;-93
2022/05/12 08:17:20;;;;;;;0.10;0.10;;;;;;;;;;4940539;29;20491;-93
2022/05/12 08:19:46;;;;;;;0.10;0.10;;;;;;;;;;4924407;29;20050;-92
2022/05/12 08:22:12;;;;;;;0.10;0.10;;;;;;;;;;4924706;29;20046;-93
2022/05/12 08:24:38;;;;;;;0.10;0.10;;;;;;;;;;4924263;29;20135;-93
2022/05/12 08:27:04;;;;;;;0.10;0.10;;;;;;;;;;4924857;29;20047;-93
2022/05/12 08:29:33;;;;;;;0.20;0.20;;;;;;;;;;4924167;29;20047;-93
2022/05/12 08:31:59;;;;;;;0.10;0.10;;;;;;;;;;4940212;29;20455;-93
2022/05/12 08:34:25;;;;;;;0.20;0.20;;;;;;;;;;4924209;29;20077;-95
2022/05/12 08:36:52;;;;;;;0.10;0.10;;;;;;;;;;4939655;29;20156;-94
2022/05/12 08:39:18;;;;;;;0.20;0.20;;;;;;;;;;4924379;29;20042;-94
2022/05/12 08:41:52;;;;;;;0.10;0.10;;;;;;;;;;4924241;29;20042;-94
2022/05/12 08:44:21;;;;;;;0.10;0.10;;;;;;;;;;4924117;29;20134;-93
2022/05/12 08:46:53;;;;;;;0.20;0.20;;;;;;;;;;4924290;29;20450;-93
2022/05/12 08:49:29;;;;;;;0.10;0.10;;;;;;;;;;4923826;29;20059;-93
2022/05/12 08:52:06;;;;;;;0.10;0.10;;;;;;;;;;4923417;29;20570;-93
2022/05/12 08:54:32;;;;;;;0.17;0.17;;;;;;;;;;4924098;29;20122;-93
2022/05/12 08:57:05;;;;;;;0.57;0.57;;;;;;;;;;4923852;29;20065;-93
2022/05/12 08:59:32;;;;;;;0.20;0.20;;;;;;;;;;4924250;29;20046;-94
2022/05/12 09:02:02;;;;;;;0.10;0.10;;;;;;;;;;4923819;29;20043;-94
2022/05/12 09:04:31;;;;;;;0.10;0.10;;;;;;;;;;4939585;29;20184;-93
2022/05/12 09:07:16;;;;;;;0.20;0.20;;;;;;;;;;4938756;29;20058;-94
2022/05/12 09:10:05;;;;;;;0.10;0.10;;;;;;;;;;4939174;29;20126;-93
2022/05/12 09:12:41;;;;;;;0.10;0.10;;;;;;;;;;4897807;29;20047;-94
2022/05/12 09:15:14;;;;;;;0.10;0.10;;;;;;;;;;4939971;29;20050;-94
2022/05/12 09:17:42;;;;;;;0.20;0.20;;;;;;;;;;4923658;29;20027;-93
2022/05/12 09:20:09;;;;;;;0.10;0.10;;;;;;;;;;4922790;29;20054;-94
2022/05/12 09:22:35;;;;;;;0.10;0.10;;;;;;;;;;4923476;29;20488;-93
2022/05/12 09:25:01;;;;;;;0.10;0.10;;;;;;;;;;4922995;29;20517;-94
2022/05/12 09:27:29;;;;;;;0.20;0.20;;;;;;;;;;4923799;29;20130;-93
2022/05/12 09:29:55;;;;;;;0.10;0.10;;;;;;;;;;4923481;29;20076;-94
2022/05/12 09:32:22;;;;;;;0.10;0.10;;;;;;;;;;4923579;29;20130;-93
2022/05/12 09:35:04;;;;;;;0.10;0.10;;;;;;;;;;4939049;29;20096;-94
2022/05/12 09:37:32;;;;;;;0.15;0.15;;;;;;;;;;4938367;29;20086;-93
2022/05/12 09:40:18;;;;;;;0.10;0.10;;;;;;;;;;4923116;29;20039;-94
2022/05/12 09:42:50;;;;;;;0.10;0.10;;;;;;;;;;4922938;29;20042;-94
2022/05/12 09:45:16;;;;;;;;;;;;;;;;;;4939818;29;20050;-93
2022/05/12 09:47:42;;;;;;;0.10;0.10;;;;;;;;;;4939117;29;19919;-93
2022/05/12 09:50:20;;;;;;;0.20;0.20;;;;;;;;;;4922683;29;20107;-93
2022/05/12 09:52:57;;;;;;;0.10;0.10;;;;;;;;;;4923242;29;20386;-93
2022/05/12 09:55:30;;;;;;;0.20;0.20;;;;;;;;;;4923357;29;20499;-95
2022/05/12 09:58:00;;;;;;;0.13;0.13;;;;;;;;;;4938805;29;20510;-93
2022/05/12 10:00:38;;;;;;;0.82;0.47;;;;;;;;;;4922756;29;20047;-93
2022/05/12 10:09:04;;;;;;;0.10;0.10;;;;;;;;;;4938765;29;20047;-93
2022/05/12 10:11:31;;;;;;;0.10;0.10;;;;;;;;;;4938769;29;20035;-93
2022/05/12 10:13:58;;;;;;;0.10;0.10;;;;;;;;;;4922279;29;20492;-93
2022/05/12 10:16:25;;;;;;;0.20;0.20;;;;;;;;;;4938959;29;20463;-93
2022/05/12 10:18:53;;;;;;;0.20;0.20;;;;;;;;;;4922726;29;20134;-93
2022/05/12 10:21:22;;;;;;;0.10;0.10;;;;;;;;;;4922635;29;20550;-93
2022/05/12 10:23:51;;;;;;;0.20;0.20;;;;;;;;;;4922623;29;20133;-93
2022/05/12 10:26:23;;;;;;;0.10;0.10;;;;;;;;;;4938206;29;20129;-93
2022/05/12 10:28:52;;;;;;;0.20;0.20;;;;;;;;;;4922419;29;20062;-92
2022/05/12 10:31:18;;;;;;;0.10;0.10;;;;;;;;;;4923361;29;20046;-93
2022/05/12 10:33:44;;;;;;;0.20;0.20;;;;;;;;;;4942673;29;20060;-93
2022/05/12 10:36:13;;;;;;;0.30;0.30;;;;;;;;;;4942315;29;20047;-94
2022/05/12 10:38:45;;;;;;;0.10;0.10;;;;;;;;;;4940923;29;20510;-93
2022/05/12 10:41:29;;;;;;;0.10;0.10;;;;;;;;;;4926649;29;20414;-92
2022/05/12 10:43:58;;;;;;;0.10;0.10;;;;;;;;;;4928076;29;20051;-94
2022/05/12 10:46:24;;;;;;;0.20;0.20;;;;;;;;;;4942691;29;20082;-93
2022/05/12 10:49:10;;;;;;;0.10;0.10;;;;;;;;;;4941968;29;20096;-95
2022/05/12 10:51:51;;;;;;;0.10;0.10;;;;;;;;;;4945552;29;20134;-95
2022/05/12 10:54:26;;;;;;;0.10;0.10;;;;;;;;;;4942799;29;20384;-94
2022/05/12 10:56:59;;;;;;;0.10;0.10;;;;;;;;;;4929903;29;20071;-93
2022/05/12 10:59:29;;;;;;;0.10;0.10;;;;;;;;;;4944803;29;20061;-92
2022/05/12 11:01:59;;;;;;;0.10;0.10;;;;;;;;;;4944464;29;20050;-93
2022/05/12 11:04:44;;;;;;;0.10;0.10;;;;;;;;;;4926984;29;20043;-93
2022/05/12 11:07:22;;;;;;;0.10;0.10;;;;;;;;;;4925389;29;20125;-93
2022/05/12 11:09:50;;;;;;;0.10;0.10;;;;;;;;;;4941596;29;20087;-93
2022/05/12 11:12:22;;;;;;;0.10;0.10;;;;;;;;;;4926024;29;20372;-93
2022/05/12 11:15:17;;;;;;;0.10;0.10;;;;;;;;;;4925891;29;20147;-92
2022/05/12 11:18:00;;;;;;;0.10;0.10;;;;;;;;;;4913926;29;20133;-92
2022/05/12 11:20:28;;;;;;;0.10;0.10;;;;;;;;;;4925726;29;20035;-93
2022/05/12 11:22:58;;;;;;;0.10;0.10;;;;;;;;;;4925593;29;20043;-93
2022/05/12 11:25:30;;;;;;;0.10;0.10;;;;;;;;;;4925477;29;20047;-93
2022/05/12 11:29:41;;;;;;;0.10;0.10;;;;;;;;;;4925672;29;20102;-93
2022/05/12 11:30:46;;;;;;;0.10;0.10;;;;;;;;;;4941687;29;20047;-94
2022/05/12 11:33:12;;;;;;;0.10;0.10;;;;;;;;;;4941221;29;20090;-93
2022/05/12 11:35:39;;;;;;;0.10;0.10;;;;;;;;;;4941155;29;20190;-93
2022/05/12 11:38:06;;;;;;;0.10;0.10;;;;;;;;;;4925523;29;20558;-93
2022/05/12 11:40:48;;;;;;;0.20;0.20;;;;;;;;;;4925603;29;20045;-93
2022/05/12 11:46:17;;;;;;;0.10;0.10;;;;;;;;;;4941222;29;20507;-94
2022/05/12 11:48:58;;;;;;;0.10;0.10;;;;;;;;;;4941242;29;20059;-93
2022/05/12 11:51:27;;;;;;;0.10;0.10;;;;;;;;;;4927408;29;20064;-94
2022/05/12 11:54:12;;;;;;;0.10;0.10;;;;;;;;;;4941150;29;20047;-94
2022/05/12 11:56:41;;;;;;;0.20;0.20;;;;;;;;;;4925287;29;20046;-94
2022/05/12 11:59:12;;;;;;;0.10;0.10;;;;;;;;;;4941292;29;20043;-92
2022/05/12 12:01:38;;;;;;;0.10;0.10;;;;;;;;;;4924717;29;20133;-93
2022/05/12 12:04:04;;;;;;;0.13;0.13;;;;;;;;;;4940819;29;20126;-93
2022/05/12 12:06:42;;;;;;;0.10;0.10;;;;;;;;;;4925363;29;20053;-93
2022/05/12 12:09:26;;;;;;;0.10;0.10;;;;;;;;;;4940672;29;20054;-92
2022/05/12 12:11:52;;;;;;;0.10;0.10;;;;;;;;;;4924801;29;20039;-93
2022/05/12 12:14:37;;;;;;;0.28;0.28;;;;;;;;;;4924999;29;20049;-93
2022/05/12 12:17:05;;;;;;;0.20;0.20;;;;;;;;;;4940943;29;20093;-93
2022/05/12 12:19:47;;;;;;;0.10;0.10;;;;;;;;;;4925202;29;20164;-96
2022/05/12 12:22:13;;;;;;;;;;;;;;;;;;4924807;29;20047;-94
2022/05/12 12:24:43;;;;;;;0.10;0.10;;;;;;;;;;4940457;29;20429;-93
2022/05/12 12:27:20;;;;;;;0.20;0.20;;;;;;;;;;4924876;29;20487;-93
2022/05/12 12:29:47;;;;;;;0.10;0.10;;;;;;;;;;4924448;29;20050;-93
2022/05/12 12:32:25;;;;;;;0.10;0.10;;;;;;;;;;4924597;29;20075;-92
2022/05/12 12:34:52;;;;;;;0.20;0.20;;;;;;;;;;4924291;29;20035;-93
2022/05/12 12:37:37;;;;;;;0.30;0.30;;;;;;;;;;4924521;29;20043;-93
2022/05/12 12:40:04;;;;;;;0.10;0.10;;;;;;;;;;4940205;29;20142;-93
2022/05/12 12:42:33;;;;;;;0.10;0.10;;;;;;;;;;4924109;29;20050;-93
2022/05/12 12:45:17;;;;;;;0.10;0.10;;;;;;;;;;4923927;29;20078;-94
2022/05/12 12:47:50;;;;;;;0.25;0.25;;;;;;;;;;4924414;29;20067;-93
2022/05/12 12:50:16;;;;;;;0.10;0.10;;;;;;;;;;4924008;29;20051;-94
2022/05/12 12:52:43;;;;;;;0.10;0.10;;;;;;;;;;4939996;29;20071;-93
2022/05/12 12:58:04;;;;;;;0.10;0.10;;;;;;;;;;4939951;29;20407;-94
2022/05/12 13:00:33;;;;;;;0.10;0.10;;;;;;;;;;4924347;29;20432;-93
2022/05/12 13:03:00;;;;;;;0.10;0.10;;;;;;;;;;4923649;29;20422;-93
2022/05/12 13:05:26;;;;;;;0.10;0.10;;;;;;;;;;4939041;29;20445;-94
2022/05/12 13:07:54;;;;;;;0.10;0.10;;;;;;;;;;4926506;29;20043;-94
2022/05/12 13:10:20;;;;;;;0.10;0.10;;;;;;;;;;4924004;29;20506;-93
2022/05/12 13:12:59;;;;;;;0.10;0.10;;;;;;;;;;4924026;29;20043;-94
2022/05/12 13:15:25;;;;;;;0.10;0.10;;;;;;;;;;4923479;29;20131;-93
2022/05/12 13:17:52;;;;;;;0.20;0.20;;;;;;;;;;4923640;29;20035;-94
2022/05/12 13:20:20;;;;;;;0.10;0.10;;;;;;;;;;4923568;29;20517;-93
2022/05/12 13:22:54;;;;;;;0.10;0.10;;;;;;;;;;4924019;29;20047;-93
2022/05/12 13:25:24;;;;;;;0.17;0.17;;;;;;;;;;4923813;29;20115;-93
2022/05/12 13:27:50;;;;;;;0.10;0.10;;;;;;;;;;4925353;29;20054;-93
2022/05/12 13:30:18;;;;;;;0.10;0.10;;;;;;;;;;4925283;29;20082;-93
2022/05/12 13:32:47;;;;;;;0.10;0.10;;;;;;;;;;4924088;29;20126;-94
2022/05/12 13:35:21;;;;;;;0.10;0.10;;;;;;;;;;4939406;29;20043;-93
2022/05/12 13:37:53;;;;;;;0.40;0.40;;;;;;;;;;4923308;29;20471;-94
2022/05/12 13:40:37;;;;;;;0.10;0.10;;;;;;;;;;4939774;29;20050;-93
2022/05/12 13:43:04;;;;;;;0.10;0.10;;;;;;;;;;4940235;29;20062;-95
2022/05/12 13:45:31;;;;;;;0.10;0.10;;;;;;;;;;4924865;29;20043;-93
2022/05/12 13:47:57;;;;;;;0.10;0.10;;;;;;;;;;4924716;29;20495;-93
2022/05/12 13:50:44;;;;;;;0.10;0.10;;;;;;;;;;4923136;29;20406;-93
2022/05/12 13:53:10;;;;;;;0.10;0.10;;;;;;;;;;4939110;29;20054;-94
2022/05/12 13:55:39;;;;;;;0.40;0.40;;;;;;;;;;4939849;29;20094;-94
2022/05/12 13:58:05;;;;;;;0.10;0.10;;;;;;;;;;4923164;29;20035;-94
2022/05/12 14:00:37;;;;;;;0.10;0.10;;;;;;;;;;4938949;29;20054;-93
2022/05/12 14:03:03;;;;;;;;;;;;;;;;;;4939363;29;20086;-94
2022/05/12 14:05:29;;;;;;;0.10;0.10;;;;;;;;;;4938931;29;19918;-92
2022/05/12 14:08:14;;;;;;;0.10;0.10;;;;;;;;;;4923006;29;20043;-95
2022/05/12 14:10:44;;;;;;;0.10;0.10;;;;;;;;;;4938985;29;20063;-95
2022/05/12 14:21:29;;;;;;;0.10;0.10;;;;;;;;;;4939230;29;20257;-93
2022/05/12 14:23:55;;;;;;;0.10;0.10;;;;;;;;;;4939010;29;20050;-92
2022/05/12 14:26:24;;;;;;;0.10;0.10;;;;;;;;;;4922703;29;20043;-94
2022/05/12 14:28:50;;;;;;;0.10;0.10;;;;;;;;;;4922798;29;20053;-92
2022/05/12 14:31:16;;;;;;;0.10;0.10;;;;;;;;;;4922840;29;20043;-93
2022/05/12 14:33:42;;;;;;;0.10;0.10;;;;;;;;;;4921890;29;20039;-93
2022/05/12 14:36:08;;;;;;;0.10;0.10;;;;;;;;;;4922479;29;20514;-93
2022/05/12 14:38:34;;;;;;;0.10;0.10;;;;;;;;;;4922920;29;20083;-93
2022/05/12 14:41:00;;;;;;;0.10;0.10;;;;;;;;;;4922602;29;20284;-93
2022/05/12 14:43:26;;;;;;;0.10;0.10;;;;;;;;;;4922776;29;20546;-93
2022/05/12 14:45:52;;;;;;;0.10;0.10;;;;;;;;;;4922764;29;20043;-93
2022/05/12 14:48:19;;;;;;;0.10;0.10;;;;;;;;;;4922300;29;20072;-93
2022/05/12 14:50:45;;;;;;;0.10;0.10;;;;;;;;;;4922783;29;20426;-93
2022/05/12 14:53:13;;;;;;;0.10;0.10;;;;;;;;;;4922701;29;20475;-92
2022/05/12 14:55:39;;;;;;;0.20;0.20;;;;;;;;;;4922542;29;20036;-95
2022/05/12 14:58:05;;;;;;;0.10;0.10;;;;;;;;;;4922555;29;20546;-93
2022/05/12 15:00:32;;;;;;;0.10;0.10;;;;;;;;;;4922442;29;20789;-93
2022/05/12 15:02:58;;;;;;;0.10;0.10;;;;;;;;;;4922758;29;20043;-93
2022/05/12 15:05:24;;;;;;;0.10;0.10;;;;;;;;;;4922902;29;20399;-93
2022/05/12 15:07:50;;;;;;;0.10;0.10;;;;;;;;;;4922395;29;20039;-94
2022/05/12 15:10:16;;;;;;;0.10;0.10;;;;;;;;;;4938104;29;20498;-93
2022/05/12 15:12:42;;;;;;;0.10;0.10;;;;;;;;;;4922317;29;20050;-93
2022/05/12 15:15:09;;;;;;;0.10;0.10;;;;;;;;;;4921721;29;20039;-92
2022/05/12 15:17:35;;;;;;;0.10;0.10;;;;;;;;;;4922988;29;20372;-93
2022/05/12 15:20:06;;;;;;;0.10;0.10;;;;;;;;;;4926058;29;20051;-93
2022/05/12 15:22:32;;;;;;;0.10;0.10;;;;;;;;;;4925925;29;20047;-93
2022/05/12 15:24:58;;;;;;;0.10;0.10;;;;;;;;;;4926049;29;20039;-93
2022/05/12 15:27:26;;;;;;;0.10;0.10;;;;;;;;;;4925896;29;20098;-93
2022/05/12 15:29:52;;;;;;;0.10;0.10;;;;;;;;;;4925523;29;20043;-93
2022/05/12 15:32:18;;;;;;;0.73;0.65;;;;;;;;;;4925127;29;20102;-93
2022/05/12 15:34:44;;;;;;;0.10;0.10;;;;;;;;;;4941577;29;20110;-93
2022/05/12 15:37:10;;;;;;;0.45;0.30;;;;;;;;;;4925383;29;20047;-93
2022/05/12 15:39:36;;;;;;;0.10;0.10;;;;;;;;;;4925421;29;20055;-93
2022/05/12 15:42:03;;;;;;;0.10;0.10;;;;;;;;;;4925141;29;20043;-92
2022/05/12 15:44:29;;;;;;;0.10;0.10;;;;;;;;;;4925353;29;20114;-93
2022/05/12 15:46:57;;;;;;;0.30;0.30;;;;;;;;;;4925067;29;20487;-93
2022/05/12 15:49:24;;;;;;;0.10;0.10;;;;;;;;;;4925155;29;20538;-94
2022/05/12 15:51:51;;;;;;;0.10;0.10;;;;;;;;;;4925066;29;20051;-93
2022/05/12 15:54:17;;;;;;;0.10;0.10;;;;;;;;;;4925330;29;20388;-93
2022/05/12 15:56:43;;;;;;;0.10;0.10;;;;;;;;;;4924673;29;20058;-91
2022/05/12 15:59:09;;;;;;;0.10;0.10;;;;;;;;;;4940591;29;20046;-92
2022/05/12 16:01:35;;;;;;;0.20;0.20;;;;;;;;;;4924806;29;20047;-93
2022/05/12 16:04:01;;;;;;;0.10;0.10;;;;;;;;;;4925570;29;20475;-92
2022/05/12 16:06:27;;;;;;;0.10;0.10;;;;;;;;;;4925418;29;20043;-93
2022/05/12 16:08:53;;;;;;;0.10;0.10;;;;;;;;;;4924742;29;20592;-93
2022/05/12 16:11:26;;;;;;;0.10;0.10;;;;;;;;;;4924393;29;20039;-94
2022/05/12 16:13:52;;;;;;;0.10;0.10;;;;;;;;;;4939530;29;20052;-93
2022/05/12 16:16:18;;;;;;;0.32;0.22;;;;;;;;;;4924547;29;20388;-93
2022/05/12 16:18:49;;;;;;;0.10;0.10;;;;;;;;;;4924597;29;20051;-92
2022/05/12 16:21:14;;;;;;;0.10;0.10;;;;;;;;;;4940687;29;20054;-92
2022/05/12 16:23:40;;;;;;;0.10;0.10;;;;;;;;;;4924948;29;20126;-92
2022/05/12 16:26:08;;;;;;;0.10;0.10;;;;;;;;;;4924791;29;20059;-93
2022/05/12 16:28:37;;;;;;;0.10;0.10;;;;;;;;;;4924677;29;20040;-92
2022/05/12 16:31:03;;;;;;;0.10;0.10;;;;;;;;;;4940068;29;20050;-94
2022/05/12 16:33:29;;;;;;;0.10;0.10;;;;;;;;;;4924192;29;20078;-92
2022/05/12 16:35:55;;;;;;;0.10;0.10;;;;;;;;;;4924214;29;20494;-92
2022/05/12 16:38:23;;;;;;;0.10;0.10;;;;;;;;;;4924183;29;20089;-93